sensor_id;sensor_type;location;lat;lon;timestamp;pressure;altitude;pressure_sealevel;temperature;humidity
13867;BME280;7003;46.982;15.248;2023-07-08T00:02:21;97799.41;;;14.74;100.00
13867;BME280;7003;46.982;15.248;2023-07-08T00:04:51;97810.56;;;14.63;100.00
13867;BME280;7003;46.982;15.248;2023-07-08T00:07:20;97802.56;;;14.39;100.00
13867;BME280;7003;46.982;15.248;2023-07-08T00:09:52;97801.31;;;14.61;100.00
13867;BME280;7003;46.982;15.248;2023-07-08T00:12:22;97803.00;;;14.53;100.00
13867;BME280;7003;46.982;15.248;2023-07-08T00:14:53;97803.88;;;14.45;100.00
13867;BME280;7003;46.982;15.248;2023-07-08T00:17:23;97802.31;;;14.44;100.00
13867;BME280;7003;46.982;15.248;2023-07-08T00:19:51;97800.38;;;14.33;100.00
13867;BME280;7003;46.982;15.248;2023-07-08T00:22:20;97800.97;;;14.38;100.00
13867;BME280;7003;46.982;15.248;2023-07-08T00:24:53;97800.81;;;14.22;100.00
13867;BME280;7003;46.982;15.248;2023-07-08T00:27:22;97801.47;;;14.19;100.00
13867;BME280;7003;46.982;15.248;2023-07-08T00:29:53;97790.44;;;14.33;100.00
13867;BME280;7003;46.982;15.248;2023-07-08T00:32:22;97787.84;;;14.00;100.00
13867;BME280;7003;46.982;15.248;2023-07-08T00:34:52;97786.53;;;14.06;100.00
13867;BME280;7003;46.982;15.248;2023-07-08T00:37:21;97793.66;;;14.14;100.00
13867;BME280;7003;46.982;15.248;2023-07-08T00:39:48;97788.97;;;14.11;100.00
13867;BME280;7003;46.982;15.248;2023-07-08T00:42:17;97783.44;;;14.16;100.00
13867;BME280;7003;46.982;15.248;2023-07-08T00:44:44;97785.75;;;14.18;100.00
13867;BME280;7003;46.982;15.248;2023-07-08T00:47:15;97788.63;;;14.01;100.00
13867;BME280;7003;46.982;15.248;2023-07-08T00:49:47;97783.94;;;13.98;100.00
13867;BME280;7003;46.982;15.248;2023-07-08T00:52:18;97784.41;;;14.12;100.00
13867;BME280;7003;46.982;15.248;2023-07-08T00:54:50;97782.03;;;13.98;100.00
13867;BME280;7003;46.982;15.248;2023-07-08T00:57:17;97789.16;;;13.94;100.00
13867;BME280;7003;46.982;15.248;2023-07-08T00:59:49;97782.47;;;13.88;100.00
13867;BME280;7003;46.982;15.248;2023-07-08T01:02:23;97779.69;;;13.84;100.00
13867;BME280;7003;46.982;15.248;2023-07-08T01:04:55;97788.88;;;14.08;100.00
13867;BME280;7003;46.982;15.248;2023-07-08T01:07:25;97784.19;;;14.17;100.00
13867;BME280;7003;46.982;15.248;2023-07-08T01:09:58;97785.38;;;13.95;100.00
13867;BME280;7003;46.982;15.248;2023-07-08T01:12:31;97790.81;;;13.86;100.00
13867;BME280;7003;46.982;15.248;2023-07-08T01:15:01;97784.03;;;13.89;100.00
13867;BME280;7003;46.982;15.248;2023-07-08T01:17:30;97784.19;;;13.72;100.00
13867;BME280;7003;46.982;15.248;2023-07-08T01:19:59;97777.66;;;13.48;100.00
13867;BME280;7003;46.982;15.248;2023-07-08T01:22:31;97778.91;;;13.63;100.00
13867;BME280;7003;46.982;15.248;2023-07-08T01:25:01;97768.13;;;13.60;100.00
13867;BME280;7003;46.982;15.248;2023-07-08T01:27:34;97775.97;;;13.77;100.00
13867;BME280;7003;46.982;15.248;2023-07-08T01:30:05;97777.31;;;13.50;100.00
13867;BME280;7003;46.982;15.248;2023-07-08T01:32:37;97774.53;;;13.46;100.00
13867;BME280;7003;46.982;15.248;2023-07-08T01:35:08;97783.84;;;13.40;100.00
13867;BME280;7003;46.982;15.248;2023-07-08T01:37:43;97772.28;;;13.69;100.00
13867;BME280;7003;46.982;15.248;2023-07-08T01:40:32;97781.28;;;13.65;100.00
13867;BME280;7003;46.982;15.248;2023-07-08T01:43:00;97785.63;;;13.36;100.00
13867;BME280;7003;46.982;15.248;2023-07-08T01:45:33;97779.91;;;13.59;100.00
13867;BME280;7003;46.982;15.248;2023-07-08T01:48:07;97779.38;;;13.65;100.00
13867;BME280;7003;46.982;15.248;2023-07-08T01:50:37;97780.38;;;13.61;100.00
13867;BME280;7003;46.982;15.248;2023-07-08T01:53:08;97784.00;;;13.77;100.00
13867;BME280;7003;46.982;15.248;2023-07-08T01:55:40;97788.81;;;13.83;100.00
13867;BME280;7003;46.982;15.248;2023-07-08T01:58:10;97791.22;;;13.23;100.00
13867;BME280;7003;46.982;15.248;2023-07-08T02:00:40;97788.53;;;13.43;100.00
13867;BME280;7003;46.982;15.248;2023-07-08T02:03:10;97783.09;;;12.90;100.00
13867;BME280;7003;46.982;15.248;2023-07-08T02:05:37;97777.94;;;13.14;100.00
13867;BME280;7003;46.982;15.248;2023-07-08T02:08:08;97779.66;;;12.60;100.00
13867;BME280;7003;46.982;15.248;2023-07-08T02:10:36;97785.88;;;12.72;100.00
13867;BME280;7003;46.982;15.248;2023-07-08T02:13:06;97783.72;;;12.87;100.00
13867;BME280;7003;46.982;15.248;2023-07-08T02:15:37;97781.50;;;13.18;100.00
13867;BME280;7003;46.982;15.248;2023-07-08T02:18:08;97787.31;;;13.20;100.00
13867;BME280;7003;46.982;15.248;2023-07-08T02:20:37;97781.41;;;13.06;100.00
13867;BME280;7003;46.982;15.248;2023-07-08T02:23:08;97779.69;;;12.81;100.00
13867;BME280;7003;46.982;15.248;2023-07-08T02:25:35;97783.56;;;12.92;100.00
13867;BME280;7003;46.982;15.248;2023-07-08T02:28:03;97782.47;;;12.93;100.00
13867;BME280;7003;46.982;15.248;2023-07-08T02:30:33;97788.06;;;13.00;100.00
13867;BME280;7003;46.982;15.248;2023-07-08T02:33:00;97778.34;;;12.95;100.00
13867;BME280;7003;46.982;15.248;2023-07-08T02:35:29;97781.50;;;13.18;100.00
13867;BME280;7003;46.982;15.248;2023-07-08T02:37:57;97780.59;;;13.14;100.00
13867;BME280;7003;46.982;15.248;2023-07-08T02:40:26;97779.22;;;12.49;100.00
13867;BME280;7003;46.982;15.248;2023-07-08T02:42:56;97778.31;;;12.75;100.00
13867;BME280;7003;46.982;15.248;2023-07-08T02:45:23;97783.72;;;12.87;100.00
13867;BME280;7003;46.982;15.248;2023-07-08T02:47:50;97788.44;;;12.90;100.00
13867;BME280;7003;46.982;15.248;2023-07-08T02:50:17;97776.03;;;12.64;100.00
13867;BME280;7003;46.982;15.248;2023-07-08T02:52:47;97779.69;;;12.81;100.00
13867;BME280;7003;46.982;15.248;2023-07-08T02:55:17;97777.91;;;12.64;100.00
13867;BME280;7003;46.982;15.248;2023-07-08T02:57:49;97774.34;;;12.81;100.00
13867;BME280;7003;46.982;15.248;2023-07-08T03:00:19;97785.28;;;12.67;100.00
13867;BME280;7003;46.982;15.248;2023-07-08T03:02:54;97777.59;;;12.65;100.00
13867;BME280;7003;46.982;15.248;2023-07-08T03:05:25;97786.94;;;13.01;100.00
13867;BME280;7003;46.982;15.248;2023-07-08T03:07:53;97788.63;;;12.85;100.00
13867;BME280;7003;46.982;15.248;2023-07-08T03:10:21;97781.78;;;12.96;100.00
13867;BME280;7003;46.982;15.248;2023-07-08T03:12:50;97782.59;;;12.96;100.00
13867;BME280;7003;46.982;15.248;2023-07-08T03:15:18;97789.84;;;12.87;100.00
13867;BME280;7003;46.982;15.248;2023-07-08T03:17:46;97788.84;;;12.71;100.00
13867;BME280;7003;46.982;15.248;2023-07-08T03:20:14;97791.00;;;12.78;100.00
13867;BME280;7003;46.982;15.248;2023-07-08T03:22:44;97778.75;;;12.18;100.00
13867;BME280;7003;46.982;15.248;2023-07-08T03:25:14;97783.16;;;12.52;100.00
13867;BME280;7003;46.982;15.248;2023-07-08T03:27:50;97779.81;;;12.55;100.00
13867;BME280;7003;46.982;15.248;2023-07-08T03:30:17;97780.97;;;12.54;100.00
13867;BME280;7003;46.982;15.248;2023-07-08T03:32:45;97777.72;;;12.69;100.00
13867;BME280;7003;46.982;15.248;2023-07-08T03:35:13;97772.91;;;12.24;100.00
13867;BME280;7003;46.982;15.248;2023-07-08T03:37:42;97777.53;;;12.07;100.00
13867;BME280;7003;46.982;15.248;2023-07-08T03:40:10;97777.06;;;12.43;100.00
13867;BME280;7003;46.982;15.248;2023-07-08T03:42:38;97772.59;;;12.55;100.00
13867;BME280;7003;46.982;15.248;2023-07-08T03:45:11;97776.28;;;12.71;100.00
13867;BME280;7003;46.982;15.248;2023-07-08T03:47:39;97781.09;;;12.57;100.00
13867;BME280;7003;46.982;15.248;2023-07-08T03:50:17;97783.97;;;12.44;100.00
13867;BME280;7003;46.982;15.248;2023-07-08T03:52:48;97786.91;;;12.80;100.00
13867;BME280;7003;46.982;15.248;2023-07-08T03:55:19;97783.00;;;12.78;100.00
13867;BME280;7003;46.982;15.248;2023-07-08T03:57:47;97785.72;;;12.40;100.00
13867;BME280;7003;46.982;15.248;2023-07-08T04:00:19;97787.16;;;12.66;100.00
13867;BME280;7003;46.982;15.248;2023-07-08T04:02:50;97779.78;;;12.63;100.00
13867;BME280;7003;46.982;15.248;2023-07-08T04:05:22;97772.53;;;12.72;100.00
13867;BME280;7003;46.982;15.248;2023-07-08T04:07:53;97768.47;;;12.66;100.00
13867;BME280;7003;46.982;15.248;2023-07-08T04:10:21;97773.25;;;12.82;100.00
13867;BME280;7003;46.982;15.248;2023-07-08T04:12:49;97761.03;;;12.51;100.00
13867;BME280;7003;46.982;15.248;2023-07-08T04:15:19;97763.63;;;13.10;100.00
13867;BME280;7003;46.982;15.248;2023-07-08T04:17:52;97763.22;;;13.29;100.00
13867;BME280;7003;46.982;15.248;2023-07-08T04:20:22;97766.34;;;13.31;100.00
13867;BME280;7003;46.982;15.248;2023-07-08T04:22:52;97760.22;;;13.01;100.00
13867;BME280;7003;46.982;15.248;2023-07-08T04:25:20;97758.81;;;12.83;100.00
13867;BME280;7003;46.982;15.248;2023-07-08T04:27:51;97759.53;;;13.13;100.00
13867;BME280;7003;46.982;15.248;2023-07-08T04:30:24;97750.81;;;13.24;100.00
13867;BME280;7003;46.982;15.248;2023-07-08T04:32:52;97748.94;;;13.58;100.00
13867;BME280;7003;46.982;15.248;2023-07-08T04:35:22;97754.59;;;13.44;100.00
13867;BME280;7003;46.982;15.248;2023-07-08T04:37:52;97753.66;;;13.40;100.00
13867;BME280;7003;46.982;15.248;2023-07-08T04:40:23;97748.22;;;13.36;100.00
13867;BME280;7003;46.982;15.248;2023-07-08T04:42:53;97754.38;;;13.49;100.00
13867;BME280;7003;46.982;15.248;2023-07-08T04:45:25;97750.09;;;13.69;100.00
13867;BME280;7003;46.982;15.248;2023-07-08T04:47:53;97748.31;;;14.30;100.00
13867;BME280;7003;46.982;15.248;2023-07-08T04:50:22;97747.75;;;14.73;100.00
13867;BME280;7003;46.982;15.248;2023-07-08T04:52:53;97740.88;;;14.60;100.00
13867;BME280;7003;46.982;15.248;2023-07-08T04:55:22;97733.91;;;15.51;100.00
13867;BME280;7003;46.982;15.248;2023-07-08T04:57:49;97726.84;;;16.18;100.00
13867;BME280;7003;46.982;15.248;2023-07-08T05:00:20;97732.13;;;16.30;100.00
13867;BME280;7003;46.982;15.248;2023-07-08T05:02:52;97718.28;;;16.79;100.00
13867;BME280;7003;46.982;15.248;2023-07-08T05:05:23;97710.38;;;17.05;100.00
13867;BME280;7003;46.982;15.248;2023-07-08T05:07:53;97720.06;;;16.71;100.00
13867;BME280;7003;46.982;15.248;2023-07-08T05:10:21;97724.97;;;17.23;100.00
13867;BME280;7003;46.982;15.248;2023-07-08T05:12:51;97723.91;;;17.66;100.00
13867;BME280;7003;46.982;15.248;2023-07-08T05:15:21;97724.06;;;18.19;100.00
13867;BME280;7003;46.982;15.248;2023-07-08T05:17:52;97721.81;;;18.51;100.00
13867;BME280;7003;46.982;15.248;2023-07-08T05:20:22;97722.69;;;18.81;100.00
13867;BME280;7003;46.982;15.248;2023-07-08T05:22:52;97714.13;;;19.06;100.00
13867;BME280;7003;46.982;15.248;2023-07-08T05:25:19;97723.28;;;18.98;100.00
13867;BME280;7003;46.982;15.248;2023-07-08T05:27:47;97720.88;;;19.19;100.00
13867;BME280;7003;46.982;15.248;2023-07-08T05:30:19;97720.47;;;18.87;100.00
13867;BME280;7003;46.982;15.248;2023-07-08T05:32:46;97722.88;;;18.96;100.00
13867;BME280;7003;46.982;15.248;2023-07-08T05:35:18;97722.84;;;19.55;100.00
13867;BME280;7003;46.982;15.248;2023-07-08T05:37:45;97724.25;;;19.46;100.00
13867;BME280;7003;46.982;15.248;2023-07-08T05:40:13;97724.66;;;19.81;100.00
13867;BME280;7003;46.982;15.248;2023-07-08T05:42:40;97724.81;;;19.99;100.00
13867;BME280;7003;46.982;15.248;2023-07-08T05:45:08;97716.97;;;20.27;100.00
13867;BME280;7003;46.982;15.248;2023-07-08T05:47:38;97720.44;;;20.28;100.00
13867;BME280;7003;46.982;15.248;2023-07-08T05:50:08;97717.41;;;19.52;100.00
13867;BME280;7003;46.982;15.248;2023-07-08T05:52:38;97715.31;;;20.12;100.00
13867;BME280;7003;46.982;15.248;2023-07-08T05:55:09;97718.78;;;20.13;100.00
13867;BME280;7003;46.982;15.248;2023-07-08T05:57:39;97715.38;;;20.19;100.00
13867;BME280;7003;46.982;15.248;2023-07-08T06:00:10;97718.59;;;20.35;100.00
13867;BME280;7003;46.982;15.248;2023-07-08T06:02:40;97725.31;;;20.56;100.00
13867;BME280;7003;46.982;15.248;2023-07-08T06:05:09;97718.94;;;20.89;100.00
13867;BME280;7003;46.982;15.248;2023-07-08T06:07:40;97726.34;;;21.02;100.00
13867;BME280;7003;46.982;15.248;2023-07-08T06:10:10;97725.25;;;20.49;100.00
13867;BME280;7003;46.982;15.248;2023-07-08T06:12:38;97725.69;;;19.70;100.00
13867;BME280;7003;46.982;15.248;2023-07-08T06:15:08;97727.13;;;20.45;100.00
13867;BME280;7003;46.982;15.248;2023-07-08T06:17:36;97732.34;;;20.71;100.00
13867;BME280;7003;46.982;15.248;2023-07-08T06:20:05;97725.63;;;21.12;100.00
13867;BME280;7003;46.982;15.248;2023-07-08T06:22:32;97727.66;;;21.26;100.00
13867;BME280;7003;46.982;15.248;2023-07-08T06:25:04;97728.41;;;21.30;100.00
13867;BME280;7003;46.982;15.248;2023-07-08T06:27:31;97716.03;;;21.29;100.00
13867;BME280;7003;46.982;15.248;2023-07-08T06:29:59;97715.84;;;22.02;100.00
13867;BME280;7003;46.982;15.248;2023-07-08T06:32:26;97704.63;;;22.24;100.00
13867;BME280;7003;46.982;15.248;2023-07-08T06:34:56;97709.22;;;21.92;100.00
13867;BME280;7003;46.982;15.248;2023-07-08T06:37:23;97704.63;;;22.42;100.00
13867;BME280;7003;46.982;15.248;2023-07-08T06:39:51;97703.34;;;23.03;100.00
13867;BME280;7003;46.982;15.248;2023-07-08T06:42:19;97696.66;;;23.26;100.00
13867;BME280;7003;46.982;15.248;2023-07-08T06:44:49;97699.25;;;23.54;100.00
13867;BME280;7003;46.982;15.248;2023-07-08T06:47:17;97701.69;;;23.31;100.00
13867;BME280;7003;46.982;15.248;2023-07-08T06:49:48;97690.06;;;23.30;100.00
13867;BME280;7003;46.982;15.248;2023-07-08T06:52:16;97694.66;;;23.40;100.00
13867;BME280;7003;46.982;15.248;2023-07-08T06:54:46;97689.94;;;23.59;100.00
13867;BME280;7003;46.982;15.248;2023-07-08T06:57:15;97689.13;;;23.65;100.00
13867;BME280;7003;46.982;15.248;2023-07-08T06:59:47;97684.38;;;23.80;100.00
13867;BME280;7003;46.982;15.248;2023-07-08T07:02:17;97687.75;;;23.98;100.00
13867;BME280;7003;46.982;15.248;2023-07-08T07:04:48;97685.63;;;24.16;100.00
13867;BME280;7003;46.982;15.248;2023-07-08T07:07:15;97681.59;;;24.39;100.00
13867;BME280;7003;46.982;15.248;2023-07-08T07:09:45;97686.97;;;24.46;93.02
13867;BME280;7003;46.982;15.248;2023-07-08T07:12:12;97687.09;;;23.80;99.73
13867;BME280;7003;46.982;15.248;2023-07-08T07:14:42;97679.22;;;23.23;96.23
13867;BME280;7003;46.982;15.248;2023-07-08T07:17:11;97681.00;;;24.13;100.00
13867;BME280;7003;46.982;15.248;2023-07-08T07:19:41;97686.09;;;24.56;93.28
13867;BME280;7003;46.982;15.248;2023-07-08T07:22:08;97693.50;;;24.89;83.68
13867;BME280;7003;46.982;15.248;2023-07-08T07:24:36;97686.38;;;24.65;91.09
13867;BME280;7003;46.982;15.248;2023-07-08T07:27:03;97682.16;;;24.61;91.44
13867;BME280;7003;46.982;15.248;2023-07-08T07:29:40;97679.94;;;24.86;86.36
13867;BME280;7003;46.982;15.248;2023-07-08T07:32:08;97684.13;;;24.98;85.46
13867;BME280;7003;46.982;15.248;2023-07-08T07:34:40;97685.41;;;25.20;69.68
13867;BME280;7003;46.982;15.248;2023-07-08T07:37:11;97689.34;;;25.46;75.55
13867;BME280;7003;46.982;15.248;2023-07-08T07:39:42;97682.41;;;25.41;76.38
13867;BME280;7003;46.982;15.248;2023-07-08T07:42:14;97681.59;;;25.71;66.28
13867;BME280;7003;46.982;15.248;2023-07-08T07:44:42;97678.84;;;25.75;71.76
13867;BME280;7003;46.982;15.248;2023-07-08T07:47:09;97675.66;;;25.49;73.09
13867;BME280;7003;46.982;15.248;2023-07-08T07:49:41;97677.94;;;25.85;68.07
13867;BME280;7003;46.982;15.248;2023-07-08T07:52:08;97682.56;;;26.11;68.15
13867;BME280;7003;46.982;15.248;2023-07-08T07:54:39;97672.31;;;26.19;61.29
13867;BME280;7003;46.982;15.248;2023-07-08T07:57:07;97679.34;;;25.93;63.17
13867;BME280;7003;46.982;15.248;2023-07-08T07:59:36;97668.97;;;25.84;66.07
13867;BME280;7003;46.982;15.248;2023-07-08T08:02:04;97664.44;;;25.74;66.35
13867;BME280;7003;46.982;15.248;2023-07-08T08:04:32;97661.53;;;25.58;66.45
13867;BME280;7003;46.982;15.248;2023-07-08T08:07:01;97659.53;;;25.89;71.95
13867;BME280;7003;46.982;15.248;2023-07-08T08:09:28;97655.72;;;26.33;62.80
13867;BME280;7003;46.982;15.248;2023-07-08T08:11:58;97659.91;;;26.14;66.97
13867;BME280;7003;46.982;15.248;2023-07-08T08:14:28;97651.88;;;26.07;58.53
13867;BME280;7003;46.982;15.248;2023-07-08T08:16:58;97652.44;;;26.18;61.54
13867;BME280;7003;46.982;15.248;2023-07-08T08:19:25;97652.00;;;26.47;60.50
13867;BME280;7003;46.982;15.248;2023-07-08T08:21:53;97658.16;;;26.27;53.09
13867;BME280;7003;46.982;15.248;2023-07-08T08:24:21;97659.09;;;26.40;57.05
13867;BME280;7003;46.982;15.248;2023-07-08T08:26:49;97657.91;;;26.18;56.07
13867;BME280;7003;46.982;15.248;2023-07-08T08:29:16;97660.44;;;26.32;59.11
13867;BME280;7003;46.982;15.248;2023-07-08T08:31:44;97662.34;;;26.55;60.38
13867;BME280;7003;46.982;15.248;2023-07-08T08:34:11;97664.06;;;25.99;67.85
13867;BME280;7003;46.982;15.248;2023-07-08T08:36:41;97659.81;;;26.44;65.20
13867;BME280;7003;46.982;15.248;2023-07-08T08:39:09;97654.28;;;26.91;61.49
13867;BME280;7003;46.982;15.248;2023-07-08T08:41:40;97660.06;;;27.13;60.11
13867;BME280;7003;46.982;15.248;2023-07-08T08:44:15;97659.81;;;27.07;58.81
13867;BME280;7003;46.982;15.248;2023-07-08T08:46:49;97659.53;;;26.39;59.79
13867;BME280;7003;46.982;15.248;2023-07-08T08:49:25;97658.47;;;26.96;61.98
13867;BME280;7003;46.982;15.248;2023-07-08T08:51:58;97654.81;;;27.02;67.12
13867;BME280;7003;46.982;15.248;2023-07-08T08:54:29;97664.31;;;27.34;64.61
13867;BME280;7003;46.982;15.248;2023-07-08T08:57:08;97658.34;;;27.39;61.81
13867;BME280;7003;46.982;15.248;2023-07-08T08:59:45;97661.41;;;27.25;54.03
13867;BME280;7003;46.982;15.248;2023-07-08T09:02:31;97663.66;;;27.10;56.20
13867;BME280;7003;46.982;15.248;2023-07-08T09:05:05;97663.56;;;27.13;57.19
13867;BME280;7003;46.982;15.248;2023-07-08T09:07:41;97665.34;;;27.60;54.97
13867;BME280;7003;46.982;15.248;2023-07-08T09:10:21;97655.44;;;27.98;55.16
13867;BME280;7003;46.982;15.248;2023-07-08T09:13:00;97660.91;;;27.66;53.41
13867;BME280;7003;46.982;15.248;2023-07-08T09:15:32;97662.59;;;27.60;57.89
13867;BME280;7003;46.982;15.248;2023-07-08T09:18:05;97659.78;;;27.95;52.34
13867;BME280;7003;46.982;15.248;2023-07-08T09:20:42;97668.13;;;28.24;54.23
13867;BME280;7003;46.982;15.248;2023-07-08T09:23:19;97671.78;;;27.85;53.55
13867;BME280;7003;46.982;15.248;2023-07-08T09:25:55;97671.06;;;27.98;49.96
13867;BME280;7003;46.982;15.248;2023-07-08T09:28:37;97665.25;;;27.95;48.65
13867;BME280;7003;46.982;15.248;2023-07-08T09:31:07;97664.66;;;26.57;50.91
13867;BME280;7003;46.982;15.248;2023-07-08T09:33:38;97654.19;;;27.50;53.74
13867;BME280;7003;46.982;15.248;2023-07-08T09:36:17;97654.59;;;27.69;54.77
13867;BME280;7003;46.982;15.248;2023-07-08T09:38:48;97659.53;;;27.90;59.30
13867;BME280;7003;46.982;15.248;2023-07-08T09:41:29;97648.97;;;28.08;51.86
13867;BME280;7003;46.982;15.248;2023-07-08T09:44:16;97654.50;;;28.05;51.01
13867;BME280;7003;46.982;15.248;2023-07-08T09:46:46;97645.09;;;28.06;53.41
13867;BME280;7003;46.982;15.248;2023-07-08T09:49:19;97637.25;;;28.08;53.88
13867;BME280;7003;46.982;15.248;2023-07-08T09:51:48;97640.81;;;28.05;54.73
13867;BME280;7003;46.982;15.248;2023-07-08T09:54:19;97642.47;;;28.02;54.73
13867;BME280;7003;46.982;15.248;2023-07-08T09:56:56;97641.50;;;28.41;50.56
13867;BME280;7003;46.982;15.248;2023-07-08T09:59:30;97644.06;;;28.48;51.70
13867;BME280;7003;46.982;15.248;2023-07-08T10:02:18;97647.91;;;28.80;46.81
13867;BME280;7003;46.982;15.248;2023-07-08T10:04:52;97640.50;;;28.93;47.54
13867;BME280;7003;46.982;15.248;2023-07-08T10:07:20;97635.09;;;29.18;46.84
13867;BME280;7003;46.982;15.248;2023-07-08T10:09:54;97635.53;;;28.30;51.31
13867;BME280;7003;46.982;15.248;2023-07-08T10:12:22;97640.19;;;28.75;48.05
13867;BME280;7003;46.982;15.248;2023-07-08T10:14:56;97640.00;;;28.53;48.56
13867;BME280;7003;46.982;15.248;2023-07-08T10:17:27;97635.34;;;28.66;48.93
13867;BME280;7003;46.982;15.248;2023-07-08T10:19:58;97642.19;;;29.16;45.83
13867;BME280;7003;46.982;15.248;2023-07-08T10:22:38;97639.31;;;29.06;51.57
13867;BME280;7003;46.982;15.248;2023-07-08T10:25:20;97633.84;;;28.20;46.52
13867;BME280;7003;46.982;15.248;2023-07-08T10:27:56;97632.25;;;28.35;52.82
13867;BME280;7003;46.982;15.248;2023-07-08T10:30:35;97646.28;;;27.72;48.97
13867;BME280;7003;46.982;15.248;2023-07-08T10:33:17;97632.75;;;28.46;49.18
13867;BME280;7003;46.982;15.248;2023-07-08T10:35:58;97628.00;;;28.92;47.93
13867;BME280;7003;46.982;15.248;2023-07-08T10:38:39;97626.72;;;28.06;50.16
13867;BME280;7003;46.982;15.248;2023-07-08T10:41:20;97635.72;;;27.90;53.43
13867;BME280;7003;46.982;15.248;2023-07-08T10:44:03;97641.72;;;28.18;51.74
13867;BME280;7003;46.982;15.248;2023-07-08T10:46:44;97639.19;;;28.40;53.72
13867;BME280;7003;46.982;15.248;2023-07-08T10:49:37;97632.66;;;28.50;50.75
13867;BME280;7003;46.982;15.248;2023-07-08T10:55:11;97616.16;;;28.82;49.94
13867;BME280;7003;46.982;15.248;2023-07-08T10:57:56;97623.59;;;28.82;46.71
13867;BME280;7003;46.982;15.248;2023-07-08T11:00:29;97622.03;;;28.07;47.01
13867;BME280;7003;46.982;15.248;2023-07-08T11:03:22;97612.31;;;28.51;49.45
13867;BME280;7003;46.982;15.248;2023-07-08T11:05:59;97615.09;;;28.63;49.64
13867;BME280;7003;46.982;15.248;2023-07-08T11:08:31;97605.41;;;28.46;50.78
13867;BME280;7003;46.982;15.248;2023-07-08T11:11:03;97608.38;;;28.81;53.31
13867;BME280;7003;46.982;15.248;2023-07-08T11:13:35;97599.38;;;29.34;50.42
13867;BME280;7003;46.982;15.248;2023-07-08T11:16:11;97599.97;;;28.59;47.61
13867;BME280;7003;46.982;15.248;2023-07-08T11:18:43;97598.78;;;28.15;47.16
13867;BME280;7003;46.982;15.248;2023-07-08T11:21:18;97602.63;;;28.62;56.69
13867;BME280;7003;46.982;15.248;2023-07-08T11:23:50;97602.13;;;28.51;51.62
13867;BME280;7003;46.982;15.248;2023-07-08T11:26:23;97608.13;;;28.75;54.41
13867;BME280;7003;46.982;15.248;2023-07-08T11:28:54;97608.41;;;29.06;51.42
13867;BME280;7003;46.982;15.248;2023-07-08T11:31:30;97596.31;;;29.45;45.81
13867;BME280;7003;46.982;15.248;2023-07-08T11:34:03;97585.59;;;28.84;45.56
13867;BME280;7003;46.982;15.248;2023-07-08T11:36:32;97585.66;;;29.60;52.69
13867;BME280;7003;46.982;15.248;2023-07-08T11:39:00;97592.78;;;29.95;48.75
13867;BME280;7003;46.982;15.248;2023-07-08T11:41:31;97580.03;;;30.01;47.83
13867;BME280;7003;46.982;15.248;2023-07-08T11:44:04;97578.91;;;30.11;48.83
13867;BME280;7003;46.982;15.248;2023-07-08T11:46:34;97576.97;;;29.87;44.47
13867;BME280;7003;46.982;15.248;2023-07-08T11:49:05;97587.56;;;30.10;46.11
13867;BME280;7003;46.982;15.248;2023-07-08T11:51:41;97587.75;;;29.56;43.94
13867;BME280;7003;46.982;15.248;2023-07-08T11:54:13;97587.91;;;29.99;46.70
13867;BME280;7003;46.982;15.248;2023-07-08T11:56:49;97594.53;;;30.23;45.94
13867;BME280;7003;46.982;15.248;2023-07-08T11:59:19;97586.06;;;30.65;47.49
13867;BME280;7003;46.982;15.248;2023-07-08T12:01:53;97589.75;;;30.37;45.20
13867;BME280;7003;46.982;15.248;2023-07-08T12:04:27;97578.16;;;29.98;46.83
13867;BME280;7003;46.982;15.248;2023-07-08T12:07:29;97569.53;;;30.43;46.15
13867;BME280;7003;46.982;15.248;2023-07-08T12:09:58;97572.75;;;30.07;45.51
13867;BME280;7003;46.982;15.248;2023-07-08T12:12:35;97560.31;;;30.50;44.32
13867;BME280;7003;46.982;15.248;2023-07-08T12:15:11;97565.72;;;30.19;40.83
13867;BME280;7003;46.982;15.248;2023-07-08T12:17:39;97563.63;;;29.51;44.33
13867;BME280;7003;46.982;15.248;2023-07-08T12:20:17;97559.00;;;30.20;44.73
13867;BME280;7003;46.982;15.248;2023-07-08T12:22:47;97570.72;;;30.20;45.24
13867;BME280;7003;46.982;15.248;2023-07-08T12:25:17;97566.81;;;29.36;42.45
13867;BME280;7003;46.982;15.248;2023-07-08T12:27:47;97558.31;;;29.81;46.88
13867;BME280;7003;46.982;15.248;2023-07-08T12:30:15;97555.94;;;30.40;44.34
13867;BME280;7003;46.982;15.248;2023-07-08T12:32:46;97545.94;;;30.46;43.51
13867;BME280;7003;46.982;15.248;2023-07-08T12:35:26;97544.69;;;30.90;43.41
13867;BME280;7003;46.982;15.248;2023-07-08T12:37:58;97533.41;;;30.97;42.28
13867;BME280;7003;46.982;15.248;2023-07-08T12:40:29;97532.28;;;31.08;43.10
13867;BME280;7003;46.982;15.248;2023-07-08T12:43:00;97529.75;;;30.91;45.44
13867;BME280;7003;46.982;15.248;2023-07-08T12:45:30;97531.09;;;31.18;45.57
13867;BME280;7003;46.982;15.248;2023-07-08T12:47:58;97544.66;;;30.59;46.75
13867;BME280;7003;46.982;15.248;2023-07-08T12:50:27;97542.56;;;30.42;45.54
13867;BME280;7003;46.982;15.248;2023-07-08T12:52:54;97540.75;;;30.70;47.34
13867;BME280;7003;46.982;15.248;2023-07-08T12:55:25;97545.31;;;30.94;44.77
13867;BME280;7003;46.982;15.248;2023-07-08T12:57:55;97548.78;;;30.86;43.88
13867;BME280;7003;46.982;15.248;2023-07-08T13:00:26;97546.38;;;31.19;44.59
13867;BME280;7003;46.982;15.248;2023-07-08T13:03:00;97543.38;;;31.35;46.85
13867;BME280;7003;46.982;15.248;2023-07-08T13:05:33;97542.97;;;31.55;43.26
13867;BME280;7003;46.982;15.248;2023-07-08T13:08:01;97529.94;;;31.37;43.29
13867;BME280;7003;46.982;15.248;2023-07-08T13:10:34;97530.72;;;31.47;42.85
13867;BME280;7003;46.982;15.248;2023-07-08T13:13:08;97526.09;;;31.84;42.75
13867;BME280;7003;46.982;15.248;2023-07-08T13:15:40;97529.66;;;31.35;42.99
13867;BME280;7003;46.982;15.248;2023-07-08T13:18:13;97528.03;;;31.16;47.19
13867;BME280;7003;46.982;15.248;2023-07-08T13:20:48;97525.34;;;31.25;46.16